createdAt,value
2017-07-24T00:00:53.831Z,33.3
2017-07-24T00:01:56.357Z,33.3
2017-07-24T00:02:56.094Z,33.2
2017-07-24T00:03:51.460Z,33.3
2017-07-24T00:04:56.213Z,33.3
2017-07-24T00:05:51.556Z,33.3
2017-07-24T00:06:54.518Z,33.3
2017-07-24T00:07:56.379Z,33.3
2017-07-24T00:08:54.306Z,33.3
2017-07-24T00:09:51.508Z,33.2
2017-07-24T00:10:51.856Z,33.3
2017-07-24T00:11:57.230Z,33.3
2017-07-24T00:12:51.736Z,33.3
2017-07-24T00:13:52.024Z,33.3
2017-07-24T00:14:54.649Z,33.3
2017-07-24T00:15:52.157Z,33.3
2017-07-24T00:16:55.076Z,33.3
2017-07-24T00:17:52.190Z,33.2
2017-07-24T00:18:51.983Z,33.3
2017-07-24T00:19:52.355Z,33.3
2017-07-24T00:20:52.407Z,33.3
2017-07-24T00:21:55.408Z,33.3
2017-07-24T00:22:52.553Z,33.2
2017-07-24T00:23:57.645Z,33.3
2017-07-24T00:24:52.308Z,33.2
2017-07-24T00:25:55.528Z,33.3
2017-07-24T00:26:55.313Z,33.3
2017-07-24T00:27:57.504Z,33.3
2017-07-24T00:28:52.620Z,33.3
2017-07-24T00:29:52.896Z,33.3
2017-07-24T00:30:57.642Z,33.2
2017-07-24T00:31:57.684Z,33.3
2017-07-24T00:32:52.762Z,33.3
2017-07-24T00:33:56.005Z,33.2
2017-07-24T00:34:58.136Z,33.2
2017-07-24T00:35:56.322Z,33.2
2017-07-24T00:36:53.199Z,33.2
2017-07-24T00:37:55.816Z,33.2
2017-07-24T00:38:56.214Z,33.2
2017-07-24T00:39:53.077Z,33.2
2017-07-24T00:40:55.897Z,33.2
2017-07-24T00:41:53.405Z,33.2
2017-07-24T00:42:53.466Z,33.2
2017-07-24T00:44:53.540Z,33.2
2017-07-24T00:45:48.552Z,33.2
2017-07-24T00:46:53.580Z,33.2
2017-07-24T00:47:49.206Z,33.2
2017-07-24T00:48:48.714Z,33.2
2017-07-24T00:49:51.946Z,33.2
2017-07-24T00:50:49.155Z,33.2
2017-07-24T00:51:49.253Z,33.2
2017-07-24T00:52:52.234Z,33.2
2017-07-24T00:53:49.359Z,33.2
2017-07-24T00:54:49.458Z,33.2
2017-07-24T00:55:54.532Z,33.2
2017-07-24T00:56:54.624Z,33.2
2017-07-24T00:57:54.709Z,33.2
2017-07-24T00:58:49.509Z,33.2
2017-07-24T00:59:49.824Z,33.2
2017-07-24T01:00:54.880Z,33.2
2017-07-24T01:01:52.876Z,33.2
2017-07-24T01:02:49.998Z,33.2
2017-07-24T01:03:49.768Z,33.2
2017-07-24T01:04:52.646Z,33.2
2017-07-24T01:05:53.332Z,33.2
2017-07-24T01:06:53.041Z,33.2
2017-07-24T01:07:49.985Z,33.2
2017-07-24T01:08:50.329Z,33.2
2017-07-24T01:09:50.337Z,33.2
2017-07-24T01:10:50.068Z,33.2
2017-07-24T01:11:55.279Z,33.2
2017-07-24T01:12:53.327Z,33.2
2017-07-24T01:13:50.238Z,33.2
2017-07-24T01:14:50.276Z,33.2
2017-07-24T01:15:50.546Z,33.2
2017-07-24T01:16:55.243Z,33.2
2017-07-24T01:17:53.519Z,33.2
2017-07-24T01:18:55.383Z,33.2
2017-07-24T01:19:55.768Z,33.2
2017-07-24T01:20:53.319Z,33.2
2017-07-24T01:21:53.696Z,33.2
2017-07-24T01:22:50.615Z,33.2
2017-07-24T01:23:51.313Z,33.2
2017-07-24T01:24:53.986Z,33.2
2017-07-24T01:25:53.967Z,33.2
2017-07-24T01:26:50.871Z,33.2
2017-07-24T01:27:51.242Z,33.2
2017-07-24T01:28:56.294Z,33.1
2017-07-24T01:29:56.656Z,33.2
2017-07-24T01:30:54.013Z,33.2
2017-07-24T01:31:51.212Z,33.2
2017-07-24T01:32:56.566Z,33.2
2017-07-24T01:33:51.360Z,33.1
2017-07-24T01:34:54.678Z,33.2
2017-07-24T01:35:51.750Z,33.2
2017-07-24T01:36:54.351Z,33.2
2017-07-24T01:37:56.513Z,33.2
2017-07-24T01:38:56.870Z,33.2
2017-07-24T01:39:56.930Z,33.2
2017-07-24T01:40:54.598Z,33.2
2017-07-24T01:41:52.369Z,33.2
2017-07-24T01:42:55.005Z,33.2
2017-07-24T01:43:51.921Z,33.2
2017-07-24T01:44:51.946Z,33.2
2017-07-24T01:45:52.357Z,33.1
2017-07-24T01:46:55.298Z,33.2
2017-07-24T01:47:55.509Z,33.1
2017-07-24T01:48:52.179Z,33.2
2017-07-24T01:49:57.491Z,33.2
2017-07-24T01:50:57.538Z,33.2
2017-07-24T01:51:52.335Z,33.2
2017-07-24T01:52:57.429Z,33.2
2017-07-24T01:53:53.014Z,33.1
2017-07-24T01:54:57.895Z,33.2
2017-07-24T01:55:57.305Z,33.2
2017-07-24T01:56:59.943Z,33.2
2017-07-24T01:57:56.787Z,33.2
2017-07-24T01:58:58.852Z,33.1
2017-07-24T01:59:56.093Z,33.1
2017-07-24T02:00:53.233Z,33.1
2017-07-24T02:01:59.541Z,33.2
2017-07-24T02:02:52.824Z,33.1
2017-07-24T02:03:56.072Z,33.1
2017-07-24T02:04:56.284Z,33.1
2017-07-24T02:05:56.336Z,33.1
2017-07-24T02:06:53.105Z,33.1
2017-07-24T02:07:53.215Z,33.1
2017-07-24T02:08:53.846Z,33.1
2017-07-24T02:09:53.423Z,33.1
2017-07-24T02:10:56.674Z,33.1
2017-07-24T02:11:54.131Z,33.1
2017-07-24T02:12:53.528Z,33.1
2017-07-24T02:13:56.322Z,33.1
2017-07-24T02:14:54.122Z,33.1
2017-07-24T02:15:53.834Z,33.1
2017-07-24T02:16:53.592Z,33.1
2017-07-24T02:17:56.737Z,33.1
2017-07-24T02:18:58.975Z,33.1
2017-07-24T02:19:56.833Z,33.1
2017-07-24T02:20:55.060Z,33.1
2017-07-24T02:21:53.934Z,33.1
2017-07-24T02:22:53.845Z,33.1
2017-07-24T02:23:59.409Z,33.1
2017-07-24T02:24:59.377Z,33.1
2017-07-24T02:25:54.070Z,33.1
2017-07-24T02:26:55.112Z,33.1
2017-07-24T02:27:54.551Z,33.1
2017-07-24T02:28:57.391Z,33.1
2017-07-24T02:29:54.845Z,33.1
2017-07-24T02:30:55.263Z,33.1
2017-07-24T02:31:54.382Z,33.1
2017-07-24T02:32:54.810Z,33.1
2017-07-24T02:33:56.471Z,33.1
2017-07-24T02:35:00.725Z,33.1
2017-07-24T02:35:57.993Z,33.1
2017-07-24T02:36:55.029Z,33.1
2017-07-24T02:37:54.861Z,33.1
2017-07-24T02:38:54.805Z,33.1
2017-07-24T02:39:57.980Z,33.1
2017-07-24T02:40:59.760Z,33.1
2017-07-24T02:42:00.392Z,33.1
2017-07-24T02:42:59.887Z,33
2017-07-24T02:43:55.259Z,33.1
2017-07-24T02:44:55.470Z,33
2017-07-24T02:45:55.479Z,33.1
2017-07-24T02:46:55.512Z,33
2017-07-24T02:47:58.774Z,33.1
2017-07-24T02:48:55.589Z,33
2017-07-24T02:50:00.651Z,33.1
2017-07-24T02:51:00.596Z,33.1
2017-07-24T02:51:58.552Z,33
2017-07-24T02:52:55.708Z,33.1
2017-07-24T02:53:56.008Z,33.1
2017-07-24T02:54:55.601Z,33.1
2017-07-24T02:56:00.555Z,33.1
2017-07-24T02:57:00.974Z,33
2017-07-24T02:58:00.710Z,33.1
2017-07-24T02:58:58.951Z,33.1
2017-07-24T03:00:01.395Z,33.1
2017-07-24T03:01:01.221Z,33.1
2017-07-24T03:01:59.127Z,33.1
2017-07-24T03:02:59.246Z,33
2017-07-24T03:03:56.055Z,33.1
2017-07-24T03:04:56.476Z,33.1
2017-07-24T03:05:56.440Z,33.1
2017-07-24T03:06:58.962Z,33.1
2017-07-24T03:07:58.992Z,33.1
2017-07-24T03:08:56.460Z,33.1
2017-07-24T03:10:01.485Z,33.1
2017-07-24T03:10:56.561Z,33
2017-07-24T03:11:59.753Z,33.1
2017-07-24T03:12:56.628Z,33.1
2017-07-24T03:14:01.332Z,33.1
2017-07-24T03:14:56.380Z,33.1
2017-07-24T03:16:01.710Z,33.1
2017-07-24T03:16:56.704Z,33
2017-07-24T03:17:56.735Z,33.1
2017-07-24T03:18:56.474Z,33.1
2017-07-24T03:19:56.570Z,33.1
2017-07-24T03:20:56.654Z,33.1
2017-07-24T03:21:59.886Z,33.1
2017-07-24T03:22:57.585Z,33.1
2017-07-24T03:23:59.965Z,33.1
2017-07-24T03:25:00.037Z,33
2017-07-24T03:25:56.915Z,33.1
2017-07-24T03:27:02.191Z,33.1
2017-07-24T03:27:59.758Z,33.1
2017-07-24T03:28:56.961Z,33
2017-07-24T03:29:57.204Z,33.1
2017-07-24T03:30:57.261Z,33
2017-07-24T03:31:57.287Z,33
2017-07-24T03:32:57.030Z,33
2017-07-24T03:34:02.058Z,33
2017-07-24T03:35:00.301Z,33
2017-07-24T03:36:03.353Z,33
2017-07-24T03:37:00.139Z,33
2017-07-24T03:38:00.109Z,33
2017-07-24T03:39:02.978Z,33
2017-07-24T03:39:57.751Z,33
2017-07-24T03:40:57.766Z,33
2017-07-24T03:41:57.836Z,33
2017-07-24T03:42:57.594Z,33
2017-07-24T03:44:00.811Z,33
2017-07-24T03:44:57.727Z,33
2017-07-24T03:45:57.730Z,33
2017-07-24T03:46:58.084Z,33
2017-07-24T03:48:00.976Z,33
2017-07-24T03:49:00.744Z,33
2017-07-24T03:49:57.971Z,33
2017-07-24T03:51:00.904Z,33
2017-07-24T03:51:58.071Z,33
2017-07-24T03:53:01.278Z,33
2017-07-24T03:54:01.608Z,33
2017-07-24T03:55:01.061Z,33
2017-07-24T03:56:00.507Z,33
2017-07-24T03:56:58.357Z,33
2017-07-24T03:58:01.612Z,33
2017-07-24T03:59:03.444Z,33
2017-07-24T03:59:59.139Z,33
2017-07-24T04:01:03.560Z,33
2017-07-24T04:02:01.824Z,33
2017-07-24T04:02:58.912Z,33
2017-07-24T04:04:01.901Z,33
2017-07-24T04:05:01.615Z,33
2017-07-24T04:06:01.913Z,33
2017-07-24T04:06:59.126Z,33
2017-07-24T04:08:04.193Z,33
2017-07-24T04:08:59.239Z,33
2017-07-24T04:09:59.284Z,33
2017-07-24T04:10:59.352Z,33
2017-07-24T04:12:02.346Z,33
2017-07-24T04:13:04.140Z,33
2017-07-24T04:13:59.519Z,33
2017-07-24T04:14:59.569Z,33
2017-07-24T04:16:02.224Z,33
2017-07-24T04:16:59.436Z,33
2017-07-24T04:17:59.740Z,33
2017-07-24T04:19:04.806Z,33
2017-07-24T04:20:04.571Z,33
2017-07-24T04:20:59.686Z,33
2017-07-24T04:22:04.694Z,33
2017-07-24T04:22:59.776Z,33
2017-07-24T04:24:04.703Z,33
2017-07-24T04:24:59.761Z,33
2017-07-24T04:26:03.053Z,32.9
2017-07-24T04:27:00.231Z,32.9
2017-07-24T04:28:02.884Z,32.8
2017-07-24T04:29:00.695Z,32.8
2017-07-24T04:30:00.474Z,32.8
2017-07-24T04:31:00.220Z,32.8
2017-07-24T04:32:03.181Z,32.8
2017-07-24T04:33:00.354Z,32.8
2017-07-24T04:34:00.444Z,32.8
2017-07-24T04:35:03.623Z,32.8
2017-07-24T04:36:00.791Z,32.8
2017-07-24T04:37:05.549Z,32.7
2017-07-24T04:38:00.669Z,32.4
2017-07-24T04:39:03.562Z,32.2
2017-07-24T04:40:06.851Z,32.2
2017-07-24T04:41:01.458Z,32.1
2017-07-24T04:42:00.861Z,32.1
2017-07-24T04:43:01.199Z,31.7
2017-07-24T04:44:03.838Z,31.4
2017-07-24T04:45:04.265Z,31.2
2017-07-24T04:46:04.276Z,31.1
2017-07-24T04:47:06.452Z,31.1
2017-07-24T04:48:06.541Z,30.8
2017-07-24T04:49:06.635Z,30.7
2017-07-24T04:50:04.299Z,30.7
2017-07-24T04:51:01.772Z,30.7
2017-07-24T04:52:04.776Z,30.8
2017-07-24T04:53:06.515Z,30.8
2017-07-24T04:54:04.814Z,30.7
2017-07-24T04:55:06.964Z,30.2
2017-07-24T04:56:04.952Z,30.1
2017-07-24T04:57:07.321Z,29.6
2017-07-24T04:58:04.706Z,29.2
2017-07-24T04:59:07.181Z,28.9
2017-07-24T05:00:06.872Z,28.7
2017-07-24T05:01:07.286Z,28.5
2017-07-24T05:02:02.048Z,28.5
2017-07-24T05:03:02.341Z,28.5
2017-07-24T05:04:07.123Z,28.7
2017-07-24T05:05:05.299Z,28.9
2017-07-24T05:06:02.217Z,29
2017-07-24T05:07:02.505Z,29
2017-07-24T05:08:05.476Z,28.9
2017-07-24T05:09:05.685Z,28.4
2017-07-24T05:10:07.506Z,28.3
2017-07-24T05:11:07.417Z,28
2017-07-24T05:12:02.795Z,27.7
2017-07-24T05:13:02.636Z,27.5
2017-07-24T05:14:07.733Z,27.4
2017-07-24T05:15:03.227Z,27.2
2017-07-24T05:16:05.677Z,27.1
2017-07-24T05:17:03.006Z,27
2017-07-24T05:18:02.892Z,26.9
2017-07-24T05:19:03.518Z,26.8
2017-07-24T05:20:03.341Z,26.6
2017-07-24T05:21:03.896Z,26.4
2017-07-24T05:22:12.256Z,26.4
2017-07-24T05:23:18.116Z,26.2
2017-07-24T05:24:08.379Z,26.2
2017-07-24T05:25:03.187Z,26.1
2017-07-24T05:26:03.484Z,26
2017-07-24T05:27:06.494Z,25.9
2017-07-24T05:28:06.154Z,25.7
2017-07-24T05:29:08.660Z,25.7
2017-07-24T05:30:08.678Z,25.7
2017-07-24T05:31:06.347Z,25.6
2017-07-24T05:32:03.801Z,25.5
2017-07-24T05:33:03.529Z,25.5
2017-07-24T05:34:06.782Z,25.5
2017-07-24T05:35:08.615Z,25.5
2017-07-24T05:36:03.666Z,25.5
2017-07-24T05:37:03.738Z,25.5
2017-07-24T05:38:04.099Z,25.5
2017-07-24T05:39:08.836Z,25.5
2017-07-24T05:40:08.002Z,25.4
2017-07-24T05:41:04.057Z,25.3
2017-07-24T05:42:04.607Z,25.3
2017-07-24T05:43:07.044Z,25.2
2017-07-24T05:44:07.363Z,25.3
2017-07-24T05:45:04.318Z,25.3
2017-07-24T05:46:09.269Z,25.1
2017-07-24T05:47:07.178Z,25.1
2017-07-24T05:48:04.727Z,25.2
2017-07-24T05:49:04.510Z,25.1
2017-07-24T05:50:05.051Z,25.2
2017-07-24T05:51:04.612Z,25.1
2017-07-24T05:52:07.907Z,25.1
2017-07-24T05:53:07.640Z,25.1
2017-07-24T05:54:10.026Z,25.1
2017-07-24T05:55:08.340Z,25.1
2017-07-24T05:56:05.095Z,25.2
2017-07-24T05:57:12.559Z,25.2
2017-07-24T05:58:05.279Z,25.2
2017-07-24T05:59:10.387Z,25.1
2017-07-24T06:00:10.198Z,25.3
2017-07-24T06:01:07.973Z,25.5
2017-07-24T06:02:06.138Z,25.5
2017-07-24T06:03:05.260Z,25.2
2017-07-24T06:04:10.613Z,24.9
2017-07-24T06:05:05.420Z,24.7
2017-07-24T06:06:05.413Z,24.7
2017-07-24T06:07:05.511Z,24.7
2017-07-24T06:08:08.718Z,24.5
2017-07-24T06:09:08.411Z,24.4
2017-07-24T06:10:10.891Z,24.3
2017-07-24T06:11:11.630Z,24.5
2017-07-24T06:12:05.744Z,24.4
2017-07-24T06:13:11.736Z,24.3
2017-07-24T06:14:08.839Z,24.3
2017-07-24T06:15:06.275Z,24.4
2017-07-24T06:16:05.931Z,24.4
2017-07-24T06:17:09.141Z,24.5
2017-07-24T06:18:06.320Z,24.5
2017-07-24T06:19:10.318Z,24.5
2017-07-24T06:20:09.372Z,24.7
2017-07-24T06:21:09.112Z,24.8
2017-07-24T06:22:11.308Z,24.8
2017-07-24T06:23:11.648Z,25
2017-07-24T06:24:06.420Z,25.1
2017-07-24T06:25:09.659Z,25.3
2017-07-24T06:26:06.501Z,25.3
2017-07-24T06:27:06.857Z,25.3
2017-07-24T06:28:13.173Z,25.4
2017-07-24T06:29:07.341Z,25.3
2017-07-24T06:30:06.815Z,25.3
2017-07-24T06:31:07.128Z,25.3
2017-07-24T06:32:07.133Z,25.4
2017-07-24T06:33:07.911Z,25.5
2017-07-24T06:34:12.011Z,25.6
2017-07-24T06:35:09.936Z,25.7
2017-07-24T06:36:09.962Z,25.6
2017-07-24T06:37:07.198Z,25.7
2017-07-24T06:38:10.857Z,25.8
2017-07-24T06:39:07.364Z,26
2017-07-24T06:40:10.298Z,25.6
2017-07-24T06:41:07.462Z,26
2017-07-24T06:42:07.376Z,26
2017-07-24T06:43:12.643Z,25.6
2017-07-24T06:44:14.166Z,25.3
2017-07-24T06:45:07.761Z,25.3
2017-07-24T06:46:10.395Z,25.1
2017-07-24T06:47:10.486Z,25
2017-07-24T06:48:10.900Z,24.9
2017-07-24T06:49:08.043Z,24.7
2017-07-24T06:50:10.926Z,24.7
2017-07-24T06:51:09.261Z,24.9
2017-07-24T06:52:09.558Z,24.9
2017-07-24T06:53:08.328Z,25
2017-07-24T06:54:08.050Z,25
2017-07-24T06:55:14.041Z,24.9
2017-07-24T06:56:11.696Z,24.8
2017-07-24T06:57:09.302Z,24.8
2017-07-24T06:58:12.222Z,24.9
2017-07-24T06:59:08.725Z,25
2017-07-24T07:00:08.714Z,25.3
2017-07-24T07:01:14.703Z,25.5
2017-07-24T07:02:14.221Z,25.7
2017-07-24T07:03:09.545Z,25.7
2017-07-24T07:04:14.764Z,25.8
2017-07-24T07:05:09.760Z,25.9
2017-07-24T07:06:09.704Z,25.8
2017-07-24T07:07:08.820Z,25.9
2017-07-24T07:08:11.992Z,26
2017-07-24T07:09:13.902Z,26
2017-07-24T07:10:10.412Z,26
2017-07-24T07:11:12.270Z,26
2017-07-24T07:12:09.694Z,25.8
2017-07-24T07:13:10.019Z,25.5
2017-07-24T07:14:10.420Z,25.3
2017-07-24T07:15:13.202Z,25.1
2017-07-24T07:16:10.222Z,25.1
2017-07-24T07:17:14.354Z,25.2
2017-07-24T07:18:14.422Z,25
2017-07-24T07:19:15.039Z,24.8
2017-07-24T07:20:15.876Z,24.5
2017-07-24T07:21:09.911Z,24.4
2017-07-24T07:22:09.972Z,24.4
2017-07-24T07:23:10.050Z,24.4
2017-07-24T07:24:09.821Z,24.5
2017-07-24T07:25:13.292Z,24.6
2017-07-24T07:26:16.515Z,24.7
2017-07-24T07:27:15.049Z,24.8
2017-07-24T07:28:09.997Z,24.8
2017-07-24T07:29:13.540Z,24.6
2017-07-24T07:30:10.101Z,24.4
2017-07-24T07:31:15.161Z,24.1
2017-07-24T07:32:13.747Z,23.9
2017-07-24T07:33:13.099Z,23.8
2017-07-24T07:34:13.571Z,23.6
2017-07-24T07:35:10.672Z,23.6
2017-07-24T07:36:15.701Z,23.5
2017-07-24T07:37:10.474Z,23.3
2017-07-24T07:38:10.726Z,23.4
2017-07-24T07:39:13.692Z,23.4
2017-07-24T07:40:10.527Z,23.4
2017-07-24T07:41:10.845Z,23.4
2017-07-24T07:42:13.457Z,23.3
2017-07-24T07:43:10.986Z,23.2
2017-07-24T07:44:14.151Z,23.2
2017-07-24T07:45:14.053Z,23.2
2017-07-24T07:46:16.183Z,23
2017-07-24T07:47:16.166Z,23
2017-07-24T07:48:11.203Z,23
2017-07-24T07:49:11.272Z,23
2017-07-24T07:50:11.263Z,23
2017-07-24T07:51:11.387Z,23
2017-07-24T07:52:11.412Z,23
2017-07-24T07:53:11.484Z,23
2017-07-24T07:54:14.093Z,23.1
2017-07-24T07:55:14.499Z,23.2
2017-07-24T07:56:11.912Z,23.2
2017-07-24T07:57:12.347Z,23.2
2017-07-24T07:58:11.663Z,23.2
2017-07-24T07:59:16.483Z,23.2
2017-07-24T08:00:16.589Z,23.3
2017-07-24T08:01:16.800Z,23.3
2017-07-24T08:02:12.111Z,23.3
2017-07-24T08:03:16.977Z,23.4
2017-07-24T08:04:17.293Z,23.5
2017-07-24T08:05:17.102Z,23.5
2017-07-24T08:06:13.132Z,23.6
2017-07-24T08:07:16.897Z,23.7
2017-07-24T08:08:13.220Z,23.7
2017-07-24T08:09:14.865Z,23.7
2017-07-24T08:10:12.850Z,23.6
2017-07-24T08:11:17.461Z,23.6
2017-07-24T08:12:12.843Z,23.5
2017-07-24T08:13:17.966Z,23.4
2017-07-24T08:14:16.339Z,23.4
2017-07-24T08:15:12.594Z,23.4
2017-07-24T08:16:13.057Z,23.4
2017-07-24T08:17:15.809Z,23.3
2017-07-24T08:18:17.652Z,23.3
2017-07-24T08:19:15.478Z,23.2
2017-07-24T08:20:14.802Z,23
2017-07-24T08:21:12.898Z,22.9
2017-07-24T08:22:15.590Z,22.7
2017-07-24T08:23:13.161Z,22.6
2017-07-24T08:24:15.051Z,22.6
2017-07-24T08:25:18.892Z,22.6
2017-07-24T08:26:18.005Z,22.6
2017-07-24T08:27:12.926Z,22.6
2017-07-24T08:28:13.274Z,22.5
2017-07-24T08:29:13.959Z,22.5
2017-07-24T08:30:16.223Z,22.5
2017-07-24T08:31:16.711Z,22.5
2017-07-24T08:32:13.754Z,22.4
2017-07-24T08:33:15.458Z,22.4
2017-07-24T08:34:21.068Z,22.4
2017-07-24T08:35:13.836Z,22.5
2017-07-24T08:36:16.557Z,22.5
2017-07-24T08:37:14.123Z,22.6
2017-07-24T08:38:20.140Z,22.7
2017-07-24T08:39:14.346Z,22.9
2017-07-24T08:40:17.072Z,23.1
2017-07-24T08:41:17.170Z,23.3
2017-07-24T08:42:18.891Z,23.5
2017-07-24T08:43:14.021Z,23.6
2017-07-24T08:44:14.987Z,23.7
2017-07-24T08:45:14.096Z,23.9
2017-07-24T08:46:14.788Z,24.1
2017-07-24T08:47:17.429Z,24.2
2017-07-24T08:48:18.368Z,24.3
2017-07-24T08:49:14.915Z,24.3
2017-07-24T08:50:14.867Z,24.4
2017-07-24T08:51:14.440Z,24.4
2017-07-24T08:52:17.304Z,24.4
2017-07-24T08:53:14.826Z,24.4
2017-07-24T08:54:14.870Z,24.5
2017-07-24T08:55:16.249Z,24.5
2017-07-24T08:56:17.820Z,24.6
2017-07-24T08:57:19.181Z,24.6
2017-07-24T08:58:20.692Z,24.7
2017-07-24T08:59:17.920Z,24.8
2017-07-24T09:00:16.057Z,24.9
2017-07-24T09:01:21.161Z,25
2017-07-24T09:02:18.958Z,25.1
2017-07-24T09:03:16.772Z,25.2
2017-07-24T09:04:19.443Z,25.2
2017-07-24T09:05:21.217Z,25.4
2017-07-24T09:06:20.665Z,25.4
2017-07-24T09:07:18.319Z,25.5
2017-07-24T09:08:27.715Z,25.4
2017-07-24T09:09:18.123Z,25.4
2017-07-24T09:10:22.024Z,25.4
2017-07-24T09:11:16.070Z,25.4
2017-07-24T09:12:18.005Z,25.4
2017-07-24T09:13:20.477Z,25.4
2017-07-24T09:14:20.760Z,25.4
2017-07-24T09:15:18.650Z,25.5
2017-07-24T09:16:21.688Z,25.6
2017-07-24T09:17:18.747Z,25.8
2017-07-24T09:18:19.508Z,26
2017-07-24T09:19:18.861Z,26.2
2017-07-24T09:20:16.220Z,26.4
2017-07-24T09:21:16.321Z,26.7
2017-07-24T09:22:20.787Z,26.9
2017-07-24T09:23:21.114Z,27.1
2017-07-24T09:24:16.758Z,27.4
2017-07-24T09:25:16.619Z,27.5
2017-07-24T09:26:18.440Z,27.7
2017-07-24T09:27:19.030Z,27.9
2017-07-24T09:28:20.687Z,28.1
2017-07-24T09:30:22.163Z,28.4
2017-07-24T09:31:17.850Z,28.5
2017-07-24T09:32:17.724Z,28.5
2017-07-24T09:33:21.770Z,28.7
2017-07-24T09:34:16.829Z,28.8
2017-07-24T09:35:18.076Z,28.9
2017-07-24T09:36:18.332Z,28.8
2017-07-24T09:37:19.728Z,28.6
2017-07-24T09:38:18.541Z,28.5
2017-07-24T09:39:16.585Z,28.5
2017-07-24T09:40:16.743Z,28.5
2017-07-24T09:41:16.670Z,28.5
2017-07-24T09:42:18.162Z,28.5
2017-07-24T09:43:19.618Z,28.4
2017-07-24T09:44:17.006Z,28.3
2017-07-24T09:45:20.318Z,28.2
2017-07-24T09:46:17.499Z,28.2
2017-07-24T09:47:18.638Z,28.1
2017-07-24T09:48:17.484Z,28.2
2017-07-24T09:49:17.451Z,28.2
2017-07-24T09:50:21.511Z,28.3
2017-07-24T09:51:22.378Z,28.2
2017-07-24T09:52:20.752Z,28
2017-07-24T09:53:20.554Z,27.9
2017-07-24T09:54:18.338Z,27.8
2017-07-24T09:55:21.251Z,27.7
2017-07-24T09:56:23.092Z,27.5
2017-07-24T09:57:21.416Z,27.5
2017-07-24T09:58:22.578Z,27.3
2017-07-24T09:59:17.779Z,27.1
2017-07-24T10:00:23.086Z,27.1
2017-07-24T10:01:18.199Z,27.2
2017-07-24T10:02:24.297Z,27.2
2017-07-24T10:03:20.780Z,27.2
2017-07-24T10:04:28.002Z,27.3
2017-07-24T10:05:19.620Z,27.3
2017-07-24T10:06:20.963Z,27.3
2017-07-24T10:07:24.033Z,27.4
2017-07-24T10:08:20.976Z,27.4
2017-07-24T10:09:22.587Z,27.5
2017-07-24T10:10:25.217Z,27.6
2017-07-24T10:11:24.927Z,27.9
2017-07-24T10:12:26.410Z,28
2017-07-24T10:13:23.124Z,28.2
2017-07-24T10:14:24.547Z,28.4
2017-07-24T10:15:19.953Z,28.5
2017-07-24T10:16:22.444Z,28.6
2017-07-24T10:17:22.466Z,28.7
2017-07-24T10:18:24.832Z,28.9
2017-07-24T10:19:23.890Z,29
2017-07-24T10:20:29.808Z,29.1
2017-07-24T10:21:23.636Z,29.3
2017-07-24T10:22:23.980Z,29.3
2017-07-24T10:23:30.058Z,29.3
2017-07-24T10:24:29.615Z,29.5
2017-07-24T10:25:28.061Z,29.5
2017-07-24T10:26:24.600Z,29.6
2017-07-24T10:27:20.690Z,29.6
2017-07-24T10:28:22.611Z,29.5
2017-07-24T10:29:20.271Z,29.3
2017-07-24T10:30:25.307Z,29.2
2017-07-24T10:31:19.390Z,29
2017-07-24T10:32:24.698Z,28.9
2017-07-24T10:33:25.413Z,28.8
2017-07-24T10:34:22.483Z,28.8
2017-07-24T10:35:24.481Z,28.9
2017-07-24T10:36:24.770Z,29
2017-07-24T10:37:23.057Z,29.1
2017-07-24T10:38:21.136Z,29.2
2017-07-24T10:39:19.918Z,29.2
2017-07-24T10:40:23.358Z,29.1
2017-07-24T10:41:25.780Z,29.1
2017-07-24T10:42:22.557Z,29
2017-07-24T10:43:20.121Z,28.9
2017-07-24T10:44:20.456Z,28.9
2017-07-24T10:45:20.100Z,28.9
2017-07-24T10:46:20.166Z,28.9
2017-07-24T10:47:20.624Z,29
2017-07-24T10:48:20.922Z,29.1
2017-07-24T10:49:22.893Z,29.1
2017-07-24T10:50:23.009Z,29.2
2017-07-24T10:51:25.209Z,29
2017-07-24T10:52:23.162Z,28.8
2017-07-24T10:53:25.271Z,28.7
2017-07-24T10:54:20.323Z,28.7
2017-07-24T10:55:25.724Z,28.9
2017-07-24T10:56:26.078Z,29
2017-07-24T10:57:20.801Z,29.1
2017-07-24T10:58:25.542Z,29.3
2017-07-24T10:59:21.643Z,29.4
2017-07-24T11:00:26.098Z,29.5
2017-07-24T11:01:20.852Z,29.6
2017-07-24T11:02:24.091Z,29.7
2017-07-24T11:03:21.827Z,29.8
2017-07-24T11:04:24.110Z,29.9
2017-07-24T11:05:21.334Z,30
2017-07-24T11:06:21.687Z,30
2017-07-24T11:07:21.354Z,30.1
2017-07-24T11:08:25.270Z,30.2
2017-07-24T11:09:21.254Z,30.3
2017-07-24T11:10:22.711Z,30.3
2017-07-24T11:11:24.145Z,30.3
2017-07-24T11:12:27.936Z,30.3
2017-07-24T11:13:21.337Z,30.3
2017-07-24T11:14:21.321Z,30.3
2017-07-24T11:15:24.307Z,30.4
2017-07-24T11:16:26.757Z,30.4
2017-07-24T11:17:25.183Z,30.5
2017-07-24T11:18:26.432Z,30.5
2017-07-24T11:19:22.538Z,30.4
2017-07-24T11:20:21.577Z,30.4
2017-07-24T11:21:21.915Z,30.5
2017-07-24T11:22:24.821Z,30.5
2017-07-24T11:23:24.848Z,30.6
2017-07-24T11:24:26.657Z,30.6
2017-07-24T11:25:22.731Z,30.6
2017-07-24T11:26:24.753Z,30.5
2017-07-24T11:27:22.145Z,30.4
2017-07-24T11:28:22.121Z,30.5
2017-07-24T11:29:24.753Z,30.3
2017-07-24T11:30:25.089Z,30.5
2017-07-24T11:31:22.889Z,30.6
2017-07-24T11:32:22.056Z,30.7
2017-07-24T11:33:27.029Z,30.7
2017-07-24T11:34:27.100Z,30.8
2017-07-24T11:35:22.454Z,30.8
2017-07-24T11:36:22.195Z,30.8
2017-07-24T11:37:25.160Z,30.8
2017-07-24T11:38:28.294Z,30.7
2017-07-24T11:39:24.885Z,30.6
2017-07-24T11:40:24.080Z,30.5
2017-07-24T11:41:25.364Z,30.5
2017-07-24T11:42:23.232Z,30.5
2017-07-24T11:43:27.913Z,30.5
2017-07-24T11:44:26.467Z,30.5
2017-07-24T11:45:25.683Z,30.4
2017-07-24T11:46:24.406Z,30.4
2017-07-24T11:47:23.177Z,30.3
2017-07-24T11:48:22.850Z,30.3
2017-07-24T11:49:30.155Z,30.1
2017-07-24T11:50:26.151Z,30.1
2017-07-24T11:51:24.789Z,30
2017-07-24T11:52:28.318Z,29.9
2017-07-24T11:53:26.184Z,29.9
2017-07-24T11:54:25.918Z,29.8
2017-07-24T11:55:29.780Z,29.8
2017-07-24T11:56:27.692Z,29.8
2017-07-24T11:57:23.237Z,29.8
2017-07-24T11:58:26.474Z,29.8
2017-07-24T11:59:27.652Z,29.9
2017-07-24T12:00:25.398Z,29.9
2017-07-24T12:01:24.035Z,30
2017-07-24T12:02:26.571Z,30.2
2017-07-24T12:03:30.449Z,30.4
2017-07-24T12:04:28.687Z,30.5
2017-07-24T12:05:23.759Z,30.6
2017-07-24T12:06:27.149Z,30.7
2017-07-24T12:07:24.539Z,30.8
2017-07-24T12:08:24.154Z,30.8
2017-07-24T12:09:24.268Z,30.8
2017-07-24T12:10:27.133Z,30.8
2017-07-24T12:11:31.028Z,30.9
2017-07-24T12:12:24.064Z,30.9
2017-07-24T12:13:29.396Z,31
2017-07-24T12:14:24.785Z,31
2017-07-24T12:15:30.069Z,31
2017-07-24T12:16:24.397Z,31
2017-07-24T12:17:24.250Z,31
2017-07-24T12:18:24.519Z,31
2017-07-24T12:19:25.640Z,31
2017-07-24T12:20:28.885Z,31
2017-07-24T12:21:28.916Z,31
2017-07-24T12:22:28.502Z,31
2017-07-24T12:23:30.598Z,31
2017-07-24T12:24:24.760Z,31
2017-07-24T12:25:30.155Z,31.1
2017-07-24T12:26:25.767Z,31.3
2017-07-24T12:27:30.197Z,31.5
2017-07-24T12:28:28.391Z,31.8
2017-07-24T12:29:28.828Z,32
2017-07-24T12:30:30.624Z,32.2
2017-07-24T12:31:28.894Z,32.3
2017-07-24T12:32:27.490Z,32.4
2017-07-24T12:33:25.728Z,32.5
2017-07-24T12:34:28.831Z,32.4
2017-07-24T12:35:26.724Z,32.4
2017-07-24T12:36:31.437Z,32.3
2017-07-24T12:37:25.871Z,32.2
2017-07-24T12:38:28.668Z,32.3
2017-07-24T12:39:26.337Z,32.3
2017-07-24T12:40:27.399Z,32.3
2017-07-24T12:41:31.038Z,32.2
2017-07-24T12:42:28.326Z,32.2
2017-07-24T12:43:27.732Z,32.2
2017-07-24T12:44:28.744Z,32.1
2017-07-24T12:45:25.845Z,32.1
2017-07-24T12:46:25.594Z,32
2017-07-24T12:47:30.838Z,31.9
2017-07-24T12:48:29.723Z,31.9
2017-07-24T12:49:26.922Z,31.9
2017-07-24T12:50:28.482Z,31.9
2017-07-24T12:51:28.039Z,31.8
2017-07-24T12:52:25.820Z,32
2017-07-24T12:53:32.373Z,32
2017-07-24T12:54:26.326Z,31.9
2017-07-24T12:55:26.931Z,31.9
2017-07-24T12:56:26.378Z,31.9
2017-07-24T12:57:30.848Z,31.8
2017-07-24T12:58:26.204Z,31.7
2017-07-24T12:59:26.916Z,31.7
2017-07-24T13:00:26.205Z,31.6
2017-07-24T13:01:27.474Z,31.6
2017-07-24T13:02:26.336Z,31.6
2017-07-24T13:03:32.710Z,31.6
2017-07-24T13:04:29.648Z,31.6
2017-07-24T13:06:26.965Z,31.5
2017-07-24T13:07:32.377Z,31.5
2017-07-24T13:08:32.134Z,31.5
2017-07-24T13:09:32.059Z,31.5
2017-07-24T13:12:23.387Z,31.4
2017-07-24T13:13:28.742Z,31.4
2017-07-24T13:14:22.610Z,31.5
2017-07-24T13:15:25.921Z,31.4
2017-07-24T13:16:23.025Z,31.4
2017-07-24T13:17:25.905Z,31.4
2017-07-24T13:18:27.919Z,31.4
2017-07-24T13:19:28.234Z,31.4
2017-07-24T13:20:25.870Z,31.5
2017-07-24T13:21:28.079Z,31.6
2017-07-24T13:22:28.414Z,31.6
2017-07-24T13:23:29.025Z,31.6
2017-07-24T13:24:23.243Z,31.6
2017-07-24T13:25:23.657Z,31.8
2017-07-24T13:26:28.399Z,31.8
2017-07-24T13:27:24.456Z,31.9
2017-07-24T13:28:24.280Z,32
2017-07-24T13:29:29.696Z,32.1
2017-07-24T13:30:28.770Z,32.2
2017-07-24T13:31:24.762Z,32.3
2017-07-24T13:32:23.505Z,32.3